createdAt,value
2023-03-15T00:02:13.742Z,95.30
2023-03-15T00:04:42.977Z,95.40
2023-03-15T00:07:12.553Z,95.40
2023-03-15T00:09:41.813Z,95.40
2023-03-15T00:12:13.200Z,95.40
2023-03-15T00:14:44.011Z,95.30
2023-03-15T00:17:13.638Z,95.30
2023-03-15T00:19:42.900Z,95.10
2023-03-15T00:22:12.470Z,95.20
2023-03-15T00:24:41.787Z,95.10
2023-03-15T00:27:11.393Z,94.90
2023-03-15T00:29:40.699Z,94.90
2023-03-15T00:32:10.027Z,94.80
2023-03-15T00:34:39.266Z,94.90
2023-03-15T00:37:08.672Z,94.70
2023-03-15T00:39:39.597Z,94.80
2023-03-15T00:42:09.094Z,94.70
2023-03-15T00:44:41.443Z,94.70
2023-03-15T00:47:15.836Z,94.80
2023-03-15T00:49:45.220Z,94.40
2023-03-15T00:52:15.124Z,93.50
2023-03-15T00:54:45.299Z,93.20
2023-03-15T00:57:14.640Z,92.90
2023-03-15T00:59:45.976Z,92.70
2023-03-15T01:02:15.463Z,92.60
2023-03-15T01:04:44.609Z,92.50
2023-03-15T01:07:13.821Z,92.40
2023-03-15T01:09:43.291Z,92.30
2023-03-15T01:12:12.639Z,92.20
2023-03-15T01:14:41.782Z,92.10
2023-03-15T01:17:11.027Z,92.00
2023-03-15T01:19:40.261Z,92.00
2023-03-15T01:22:09.492Z,92.00
2023-03-15T01:28:02.918Z,91.60
2023-03-15T01:30:32.106Z,91.50
2023-03-15T01:33:01.565Z,91.40
2023-03-15T01:35:30.821Z,91.30
2023-03-15T01:38:11.921Z,91.20
2023-03-15T01:40:52.901Z,91.00
2023-03-15T01:43:26.628Z,90.90
2023-03-15T01:46:27.763Z,90.60
2023-03-15T01:49:17.266Z,90.60
2023-03-15T01:52:14.322Z,90.40
2023-03-15T01:55:12.324Z,90.40
2023-03-15T01:57:52.500Z,90.30
2023-03-15T02:00:26.195Z,90.10
2023-03-15T02:03:07.522Z,90.30
2023-03-15T02:06:19.276Z,90.00
2023-03-15T02:09:06.899Z,89.30
2023-03-15T02:11:37.449Z,89.10
2023-03-15T02:14:07.940Z,88.80
2023-03-15T02:16:37.796Z,88.30
2023-03-15T02:19:14.458Z,88.10
2023-03-15T02:21:49.452Z,87.70
2023-03-15T02:24:57.315Z,87.50
2023-03-15T02:27:36.520Z,87.40
2023-03-15T02:30:08.476Z,87.70
2023-03-15T02:32:37.840Z,88.40
2023-03-15T02:35:10.692Z,87.30
2023-03-15T02:37:39.976Z,87.50
2023-03-15T02:40:23.228Z,86.90
2023-03-15T02:42:57.470Z,86.70
2023-03-15T02:45:30.429Z,86.30
2023-03-15T02:48:01.074Z,85.60
2023-03-15T02:50:30.734Z,85.30
2023-03-15T02:52:59.929Z,85.50
2023-03-15T02:55:29.082Z,85.40
2023-03-15T02:57:58.344Z,85.60
2023-03-15T03:00:27.951Z,84.90
2023-03-15T03:03:15.500Z,84.30
2023-03-15T03:05:44.603Z,84.00
2023-03-15T03:08:17.395Z,84.40
2023-03-15T03:10:46.555Z,83.20
2023-03-15T03:13:15.874Z,82.50
2023-03-15T03:15:46.562Z,82.20
2023-03-15T03:18:15.810Z,83.00
2023-03-15T03:20:49.761Z,81.80
2023-03-15T03:23:19.861Z,81.00
2023-03-15T03:25:49.133Z,81.10
2023-03-15T03:28:18.224Z,80.70
2023-03-15T03:30:47.381Z,80.30
2023-03-15T03:33:16.540Z,80.80
2023-03-15T03:35:46.181Z,80.30
2023-03-15T03:38:16.330Z,79.90
2023-03-15T03:40:47.090Z,80.10
2023-03-15T03:43:16.339Z,80.10
2023-03-15T03:45:45.561Z,79.50
2023-03-15T03:48:14.832Z,79.50
2023-03-15T03:50:44.084Z,78.70
2023-03-15T03:53:13.326Z,78.50
2023-03-15T03:55:43.653Z,78.20
2023-03-15T03:58:12.858Z,77.20
2023-03-15T04:00:42.855Z,77.10
2023-03-15T04:03:12.024Z,77.40
2023-03-15T04:05:42.843Z,77.80
2023-03-15T04:08:11.957Z,77.40
2023-03-15T04:10:41.150Z,78.00
2023-03-15T04:13:10.414Z,77.60
2023-03-15T04:15:39.649Z,77.60
2023-03-15T04:18:08.937Z,77.10
2023-03-15T04:20:38.477Z,76.30
2023-03-15T04:23:08.330Z,76.50
2023-03-15T04:25:37.902Z,76.10
2023-03-15T04:28:11.536Z,76.10
2023-03-15T04:30:40.726Z,76.20
2023-03-15T04:33:11.892Z,75.40
2023-03-15T04:35:43.529Z,74.90
2023-03-15T04:38:12.801Z,74.40
2023-03-15T04:40:43.800Z,74.00
2023-03-15T04:43:13.026Z,73.50
2023-03-15T04:45:42.185Z,73.70
2023-03-15T04:48:11.919Z,73.10
2023-03-15T04:50:41.198Z,72.80
2023-03-15T04:53:10.369Z,72.80
2023-03-15T04:55:39.463Z,73.50
2023-03-15T04:58:08.664Z,73.10
2023-03-15T05:00:37.875Z,72.60
2023-03-15T05:03:07.241Z,71.80
2023-03-15T05:05:36.428Z,71.60
2023-03-15T05:08:05.852Z,71.60
2023-03-15T05:10:35.272Z,71.20
2023-03-15T05:13:04.468Z,71.30
2023-03-15T05:15:33.943Z,71.30
2023-03-15T05:18:03.088Z,71.60
2023-03-15T05:20:33.063Z,71.90
2023-03-15T05:23:02.332Z,70.50
2023-03-15T05:25:31.906Z,69.70
2023-03-15T05:28:01.059Z,69.30
2023-03-15T05:30:30.215Z,69.20
2023-03-15T05:32:59.875Z,69.20
2023-03-15T05:35:29.388Z,68.80
2023-03-15T05:37:58.658Z,67.70
2023-03-15T05:40:30.739Z,67.70
2023-03-15T05:43:00.447Z,66.30
2023-03-15T05:45:29.623Z,66.00
2023-03-15T05:47:58.782Z,65.30
2023-03-15T05:50:29.249Z,65.40
2023-03-15T05:52:59.513Z,66.50
2023-03-15T05:55:28.813Z,66.70
2023-03-15T05:57:57.969Z,65.10
2023-03-15T06:00:27.133Z,64.80
2023-03-15T06:02:56.344Z,64.60
2023-03-15T06:05:25.824Z,65.20
2023-03-15T06:07:54.994Z,64.60
2023-03-15T06:10:24.383Z,63.50
2023-03-15T06:12:53.811Z,65.40
2023-03-15T06:15:22.983Z,64.10
2023-03-15T06:17:52.405Z,66.50
2023-03-15T06:20:21.790Z,65.60
2023-03-15T06:22:51.076Z,65.30
2023-03-15T06:25:20.403Z,64.50
2023-03-15T06:27:49.584Z,64.00
2023-03-15T06:30:19.016Z,64.40
2023-03-15T06:32:48.386Z,63.80
2023-03-15T06:35:17.729Z,64.20
2023-03-15T06:37:46.909Z,63.00
2023-03-15T06:40:16.732Z,63.40
2023-03-15T06:42:45.919Z,62.70
2023-03-15T06:45:17.382Z,62.80
2023-03-15T06:47:46.631Z,62.40
2023-03-15T06:50:15.847Z,62.20
2023-03-15T06:52:45.009Z,62.80
2023-03-15T06:55:18.978Z,62.60
2023-03-15T06:57:48.219Z,61.50
2023-03-15T07:00:18.148Z,61.30
2023-03-15T07:02:47.705Z,61.90
2023-03-15T07:05:16.971Z,61.70
2023-03-15T07:07:46.248Z,61.70
2023-03-15T07:10:15.464Z,61.80
2023-03-15T07:12:45.283Z,61.00
2023-03-15T07:15:17.028Z,60.20
2023-03-15T07:17:46.631Z,61.70
2023-03-15T07:20:16.164Z,63.10
2023-03-15T07:22:46.631Z,62.60
2023-03-15T07:25:15.996Z,62.30
2023-03-15T07:27:45.436Z,61.20
2023-03-15T07:30:15.395Z,61.30
2023-03-15T07:32:44.827Z,61.00
2023-03-15T07:35:14.748Z,61.70
2023-03-15T07:37:44.814Z,61.30
2023-03-15T07:40:16.941Z,62.00
2023-03-15T07:42:46.911Z,61.70
2023-03-15T07:45:16.263Z,62.40
2023-03-15T07:47:45.865Z,61.70
2023-03-15T07:50:17.079Z,62.10
2023-03-15T07:52:46.485Z,62.30
2023-03-15T07:55:15.694Z,61.80
2023-03-15T07:57:44.824Z,61.80
2023-03-15T08:00:15.551Z,61.70
2023-03-15T08:02:44.920Z,62.00
2023-03-15T08:05:14.118Z,61.70
2023-03-15T08:07:43.388Z,62.40
2023-03-15T08:10:13.322Z,61.80
2023-03-15T08:12:44.098Z,62.20
2023-03-15T08:15:15.383Z,62.00
2023-03-15T08:17:45.078Z,61.80
2023-03-15T08:20:15.954Z,61.80
2023-03-15T08:22:50.340Z,61.60
2023-03-15T08:25:25.264Z,62.10
2023-03-15T08:27:55.386Z,61.90
2023-03-15T08:30:25.431Z,61.50
2023-03-15T08:32:55.228Z,61.70
2023-03-15T08:35:24.647Z,61.90
2023-03-15T08:37:54.333Z,61.80
2023-03-15T08:40:26.779Z,62.00
2023-03-15T08:42:57.221Z,62.00
2023-03-15T08:45:27.936Z,62.50
2023-03-15T08:48:01.560Z,62.20
2023-03-15T08:50:32.786Z,62.30
2023-03-15T08:53:01.890Z,62.40
2023-03-15T08:55:31.010Z,62.70
2023-03-15T08:58:03.424Z,62.00
2023-03-15T09:00:33.880Z,62.60
2023-03-15T09:03:03.232Z,62.40
2023-03-15T09:05:32.351Z,62.80
2023-03-15T09:08:02.869Z,62.60
2023-03-15T09:10:32.250Z,62.90
2023-03-15T09:13:01.807Z,62.80
2023-03-15T09:15:31.573Z,63.00
2023-03-15T09:18:00.688Z,63.10
2023-03-15T09:20:30.625Z,63.00
2023-03-15T09:23:00.763Z,63.00
2023-03-15T09:25:30.548Z,63.50
2023-03-15T09:28:02.648Z,63.40
2023-03-15T09:30:32.234Z,63.50
2023-03-15T09:33:01.731Z,63.50
2023-03-15T09:35:30.957Z,63.80
2023-03-15T09:38:00.186Z,64.50
2023-03-15T09:40:42.608Z,64.40
2023-03-15T09:43:17.283Z,64.80
2023-03-15T09:46:32.945Z,64.60
2023-03-15T09:49:25.017Z,64.80
2023-03-15T09:52:13.979Z,65.00
2023-03-15T09:54:59.726Z,64.60
2023-03-15T09:57:50.150Z,64.40
2023-03-15T10:00:34.307Z,65.00
2023-03-15T10:03:08.122Z,65.00
2023-03-15T10:05:48.642Z,64.80
2023-03-15T10:08:21.248Z,65.10
2023-03-15T10:11:46.884Z,64.80
2023-03-15T10:14:53.883Z,65.70
2023-03-15T10:18:11.135Z,65.40
2023-03-15T10:20:49.298Z,65.50
2023-03-15T10:23:55.932Z,65.70
2023-03-15T10:26:35.960Z,66.10
2023-03-15T10:29:15.519Z,66.00
2023-03-15T10:31:48.275Z,66.00
2023-03-15T10:34:18.143Z,66.00
2023-03-15T10:36:56.240Z,66.10
2023-03-15T10:39:26.936Z,66.40
2023-03-15T10:41:56.093Z,66.80
2023-03-15T10:44:29.174Z,67.20
2023-03-15T10:47:22.106Z,67.60
2023-03-15T10:49:58.823Z,68.30
2023-03-15T10:52:32.688Z,68.40
2023-03-15T10:55:08.682Z,68.50
2023-03-15T10:57:51.969Z,68.90
2023-03-15T11:00:37.644Z,69.00
2023-03-15T11:03:20.671Z,69.20
2023-03-15T11:05:56.770Z,69.50
2023-03-15T11:08:42.943Z,69.90
2023-03-15T11:11:12.380Z,70.30
2023-03-15T11:13:55.828Z,71.00
2023-03-15T11:16:25.233Z,71.50
2023-03-15T11:19:01.438Z,71.90
2023-03-15T11:21:35.114Z,72.20
2023-03-15T11:24:08.009Z,72.90
2023-03-15T11:26:52.431Z,73.20
2023-03-15T11:29:31.003Z,73.70
2023-03-15T11:32:03.478Z,73.90
2023-03-15T11:35:12.228Z,74.40
2023-03-15T11:37:53.002Z,74.70
2023-03-15T11:40:24.898Z,75.20
2023-03-15T11:42:59.677Z,75.60
2023-03-15T11:46:09.801Z,76.00
2023-03-15T11:48:59.960Z,76.00
2023-03-15T11:51:35.878Z,76.20
2023-03-15T11:54:13.024Z,76.40
2023-03-15T11:57:02.464Z,76.70
2023-03-15T11:59:35.254Z,77.10
2023-03-15T12:02:16.348Z,77.20
2023-03-15T12:05:01.810Z,77.20
2023-03-15T12:07:40.005Z,77.70
2023-03-15T12:10:33.549Z,77.90
2023-03-15T12:13:23.929Z,78.10
2023-03-15T12:15:54.374Z,78.40
2023-03-15T12:18:47.285Z,78.70
2023-03-15T12:21:27.733Z,78.40
2023-03-15T12:24:37.121Z,79.00
2023-03-15T12:27:16.016Z,79.20
2023-03-15T12:29:48.741Z,79.50
2023-03-15T12:32:20.364Z,79.80
2023-03-15T12:34:55.192Z,80.00
2023-03-15T12:37:54.710Z,80.20
2023-03-15T12:40:29.757Z,80.10
2023-03-15T12:42:58.837Z,80.30
2023-03-15T12:45:46.216Z,80.60
2023-03-15T12:48:22.314Z,80.20
2023-03-15T12:50:56.587Z,80.10
2023-03-15T12:53:39.395Z,79.60
2023-03-15T12:56:30.667Z,79.40
2023-03-15T12:59:13.623Z,79.30
2023-03-15T13:01:43.747Z,79.40
2023-03-15T13:04:15.922Z,79.00
2023-03-15T13:07:14.091Z,78.80
2023-03-15T13:10:12.077Z,79.00
2023-03-15T13:12:50.972Z,78.90
2023-03-15T13:15:40.742Z,78.30
2023-03-15T13:18:22.895Z,79.00
2023-03-15T13:21:38.188Z,79.10
2023-03-15T13:24:23.945Z,79.00
2023-03-15T13:27:08.625Z,79.40
2023-03-15T13:29:38.317Z,79.70
2023-03-15T13:32:20.663Z,79.80
2023-03-15T13:34:50.847Z,79.90
2023-03-15T13:37:27.761Z,80.40
2023-03-15T13:40:13.871Z,80.30
2023-03-15T13:42:44.288Z,80.20
2023-03-15T13:45:17.437Z,80.50
2023-03-15T13:47:48.595Z,81.00
2023-03-15T13:50:22.531Z,80.70
2023-03-15T13:52:52.035Z,80.90
2023-03-15T13:55:26.232Z,81.00
2023-03-15T13:58:06.435Z,81.10
2023-03-15T14:00:37.882Z,81.00
2023-03-15T14:03:18.425Z,81.10
2023-03-15T14:05:59.658Z,81.30
2023-03-15T14:08:39.386Z,81.40
2023-03-15T14:11:13.784Z,81.60
2023-03-15T14:14:05.192Z,81.70
2023-03-15T14:17:03.502Z,81.90
2023-03-15T14:19:37.814Z,82.10
2023-03-15T14:22:19.277Z,82.40
2023-03-15T14:24:53.396Z,82.50
2023-03-15T14:27:29.006Z,82.60
2023-03-15T14:30:02.286Z,82.60
2023-03-15T14:32:38.563Z,82.70
2023-03-15T14:35:33.523Z,83.10
2023-03-15T14:38:23.976Z,83.00
2023-03-15T14:40:55.202Z,83.50
2023-03-15T14:43:24.573Z,83.30
2023-03-15T14:45:53.714Z,83.30
2023-03-15T14:48:41.723Z,83.40
2023-03-15T14:51:19.451Z,83.40
2023-03-15T14:53:52.649Z,83.70
2023-03-15T14:56:22.243Z,83.60
2023-03-15T14:58:55.061Z,83.70
2023-03-15T15:01:46.941Z,83.80
2023-03-15T15:04:17.222Z,83.60
2023-03-15T15:06:53.611Z,83.60
2023-03-15T15:09:31.843Z,83.50
2023-03-15T15:12:01.035Z,83.70
2023-03-15T15:14:30.247Z,83.80
2023-03-15T15:16:59.686Z,84.00
2023-03-15T15:19:28.820Z,84.20
2023-03-15T15:21:58.880Z,84.00
2023-03-15T15:24:29.213Z,84.30
2023-03-15T15:27:00.808Z,84.30
2023-03-15T15:29:30.128Z,84.20
2023-03-15T15:32:01.971Z,84.00
2023-03-15T15:34:31.124Z,84.40
2023-03-15T15:37:00.468Z,84.30
2023-03-15T15:39:30.586Z,84.40
2023-03-15T15:41:59.748Z,84.50
2023-03-15T15:44:29.106Z,84.40
2023-03-15T15:46:58.565Z,84.50
2023-03-15T15:49:27.975Z,84.90
2023-03-15T15:51:57.329Z,84.70
2023-03-15T15:54:36.595Z,84.70
2023-03-15T15:57:07.315Z,84.70
2023-03-15T15:59:38.162Z,85.00
2023-03-15T16:02:23.135Z,85.10
2023-03-15T16:04:52.788Z,84.90
2023-03-15T16:07:21.987Z,84.70
2023-03-15T16:09:58.002Z,84.90
2023-03-15T16:12:28.266Z,85.10
2023-03-15T16:14:58.424Z,85.30
2023-03-15T16:17:28.279Z,85.30
2023-03-15T16:19:57.735Z,85.60
2023-03-15T16:22:28.585Z,85.60
2023-03-15T16:25:02.464Z,85.40
2023-03-15T16:27:32.459Z,85.60
2023-03-15T16:30:03.770Z,85.20
2023-03-15T16:32:44.554Z,85.10
2023-03-15T16:35:18.537Z,84.90
2023-03-15T16:37:50.152Z,85.40
2023-03-15T16:40:31.557Z,85.40
2023-03-15T16:43:01.640Z,85.10
2023-03-15T16:45:30.909Z,85.50
2023-03-15T16:48:00.067Z,85.10
2023-03-15T16:50:34.628Z,85.30
2023-03-15T16:53:09.251Z,85.00
2023-03-15T16:55:41.957Z,85.40
2023-03-15T16:58:20.445Z,85.40
2023-03-15T17:00:49.611Z,85.40
2023-03-15T17:03:19.281Z,85.40
2023-03-15T17:05:50.221Z,85.90
2023-03-15T17:08:23.021Z,85.40
2023-03-15T17:10:52.460Z,85.50
2023-03-15T17:13:29.906Z,85.70
2023-03-15T17:15:59.143Z,86.00
2023-03-15T17:18:30.973Z,86.00
2023-03-15T17:21:00.196Z,86.50
2023-03-15T17:23:30.212Z,87.00
2023-03-15T17:26:00.091Z,87.50
2023-03-15T17:28:29.778Z,87.90
2023-03-15T17:31:14.238Z,88.10
2023-03-15T17:33:48.782Z,88.00
2023-03-15T17:36:24.717Z,88.30
2023-03-15T17:38:55.835Z,88.50
2023-03-15T17:41:38.372Z,89.30
2023-03-15T17:44:07.853Z,88.70
2023-03-15T17:46:37.114Z,89.00
2023-03-15T17:49:10.005Z,89.10
2023-03-15T17:51:40.236Z,89.20
2023-03-15T17:54:23.012Z,89.40
2023-03-15T17:56:52.592Z,89.50
2023-03-15T17:59:21.792Z,89.40
2023-03-15T18:01:52.260Z,89.70
2023-03-15T18:04:22.747Z,89.80
2023-03-15T18:06:51.950Z,90.00
2023-03-15T18:09:23.171Z,90.10
2023-03-15T18:11:52.346Z,90.10
2023-03-15T18:14:21.583Z,90.10
2023-03-15T18:16:50.922Z,90.40
2023-03-15T18:19:20.112Z,90.30
2023-03-15T18:21:49.244Z,90.40
2023-03-15T18:24:18.624Z,90.50
2023-03-15T18:26:48.953Z,90.30
2023-03-15T18:29:18.062Z,90.40
2023-03-15T18:31:47.303Z,90.30
2023-03-15T18:34:18.162Z,90.40
2023-03-15T18:36:47.340Z,90.50
2023-03-15T18:39:16.806Z,90.50
2023-03-15T18:41:46.068Z,90.60
2023-03-15T18:44:15.202Z,90.80
2023-03-15T18:46:47.016Z,90.80
2023-03-15T18:49:21.811Z,90.90
2023-03-15T18:51:50.989Z,91.00
2023-03-15T18:54:20.207Z,91.10
2023-03-15T18:56:49.370Z,91.20
2023-03-15T18:59:19.273Z,91.20
2023-03-15T19:01:48.505Z,91.40
2023-03-15T19:04:17.655Z,91.30
2023-03-15T19:06:46.815Z,91.10
2023-03-15T19:09:16.247Z,91.00
2023-03-15T19:11:45.376Z,91.30
2023-03-15T19:14:14.562Z,91.40
2023-03-15T19:16:43.761Z,91.30
2023-03-15T19:19:12.902Z,91.50
2023-03-15T19:21:43.369Z,91.50
2023-03-15T19:24:13.037Z,91.70
2023-03-15T19:26:42.859Z,91.70
2023-03-15T19:29:12.105Z,91.80
2023-03-15T19:31:41.342Z,92.00
2023-03-15T19:34:10.579Z,92.10
2023-03-15T19:36:39.821Z,92.10
2023-03-15T19:39:11.357Z,92.20
2023-03-15T19:41:42.468Z,92.30
2023-03-15T19:44:12.705Z,92.30
2023-03-15T19:46:42.448Z,92.50
2023-03-15T19:49:11.682Z,92.70
2023-03-15T19:51:40.986Z,92.80
2023-03-15T19:54:10.250Z,92.80
2023-03-15T19:56:39.515Z,92.90
2023-03-15T19:59:10.164Z,92.90
2023-03-15T20:01:39.535Z,92.70
2023-03-15T20:04:08.869Z,92.80
2023-03-15T20:06:38.061Z,92.70
2023-03-15T20:09:07.217Z,92.90
2023-03-15T20:11:36.387Z,93.00
2023-03-15T20:14:05.767Z,93.20
2023-03-15T20:16:35.088Z,93.20
2023-03-15T20:19:04.296Z,93.40
2023-03-15T20:21:34.723Z,93.60
2023-03-15T20:24:05.214Z,93.60
2023-03-15T20:26:34.513Z,93.60
2023-03-15T20:29:04.329Z,93.60
2023-03-15T20:31:34.663Z,93.50
2023-03-15T20:34:06.670Z,93.50
2023-03-15T20:36:36.392Z,93.50
2023-03-15T20:39:06.620Z,93.50
2023-03-15T20:41:35.885Z,93.60
2023-03-15T20:44:05.080Z,93.40
2023-03-15T20:46:34.958Z,93.60
2023-03-15T20:49:04.149Z,93.60
2023-03-15T20:51:33.365Z,93.60
2023-03-15T20:54:02.580Z,93.50
2023-03-15T20:56:31.846Z,93.40
2023-03-15T20:59:03.166Z,93.40
2023-03-15T21:01:34.229Z,93.40
2023-03-15T21:04:03.446Z,93.50
2023-03-15T21:06:32.660Z,93.70
2023-03-15T21:09:02.455Z,93.70
2023-03-15T21:11:31.717Z,93.70
2023-03-15T21:14:01.245Z,93.80
2023-03-15T21:16:30.425Z,93.80
2023-03-15T21:18:59.538Z,93.70
2023-03-15T21:21:29.536Z,93.60
2023-03-15T21:23:58.820Z,93.60
2023-03-15T21:26:27.981Z,93.80
2023-03-15T21:28:57.062Z,93.90
2023-03-15T21:31:29.268Z,94.00
2023-03-15T21:33:58.496Z,93.70
2023-03-15T21:36:27.659Z,93.80
2023-03-15T21:38:56.815Z,93.90
2023-03-15T21:41:26.072Z,94.00
2023-03-15T21:43:55.177Z,94.10
2023-03-15T21:46:24.878Z,94.10
2023-03-15T21:48:54.137Z,94.00
2023-03-15T21:51:23.316Z,94.20
2023-03-15T21:53:52.624Z,94.40
2023-03-15T21:56:26.845Z,94.40
2023-03-15T21:58:56.927Z,94.40
2023-03-15T22:01:26.512Z,94.50
2023-03-15T22:03:55.719Z,94.40
2023-03-15T22:06:24.934Z,94.40
2023-03-15T22:08:54.102Z,94.40
2023-03-15T22:11:23.826Z,94.40
2023-03-15T22:13:53.720Z,94.50
2023-03-15T22:16:22.966Z,94.50
2023-03-15T22:18:52.119Z,94.40
2023-03-15T22:21:21.358Z,94.50
2023-03-15T22:23:52.325Z,94.60
2023-03-15T22:26:23.379Z,94.70
2023-03-15T22:28:53.009Z,94.80
2023-03-15T22:31:22.275Z,94.70
2023-03-15T22:33:51.540Z,94.70
2023-03-15T22:36:20.996Z,94.80
2023-03-15T22:38:50.958Z,94.80
2023-03-15T22:41:21.738Z,94.70
2023-03-15T22:43:53.516Z,94.70
2023-03-15T22:46:23.263Z,94.50
2023-03-15T22:48:52.456Z,94.40
2023-03-15T22:51:21.759Z,94.30
2023-03-15T22:53:51.097Z,94.20
2023-03-15T22:56:20.456Z,94.10
2023-03-15T22:58:49.808Z,94.30
2023-03-15T23:01:18.999Z,94.10
2023-03-15T23:03:48.252Z,94.00
2023-03-15T23:06:18.149Z,93.90
2023-03-15T23:08:47.908Z,93.80
2023-03-15T23:11:17.108Z,93.70
2023-03-15T23:13:49.746Z,93.60
2023-03-15T23:16:20.071Z,93.70
2023-03-15T23:18:49.728Z,93.70
2023-03-15T23:21:19.123Z,93.70
2023-03-15T23:23:49.070Z,93.70
2023-03-15T23:26:20.466Z,93.80
2023-03-15T23:28:49.701Z,93.80
2023-03-15T23:31:19.384Z,93.80
2023-03-15T23:33:48.755Z,93.80
2023-03-15T23:36:18.037Z,93.90
2023-03-15T23:38:47.264Z,93.90
2023-03-15T23:41:16.470Z,93.90
2023-03-15T23:43:45.660Z,94.00
2023-03-15T23:46:15.436Z,94.10
2023-03-15T23:48:44.781Z,94.10
2023-03-15T23:51:13.961Z,94.10
2023-03-15T23:53:43.177Z,94.20
2023-03-15T23:56:12.519Z,94.20
2023-03-15T23:58:41.836Z,94.30
